sensor_id;sensor_type;location;lat;lon;timestamp;pressure;altitude;pressure_sealevel;temperature;humidity
25156;BME280;21913;52.456;13.634;2023-04-08T00:03:23;100846.34;;;11.76;63.41
25156;BME280;21913;52.456;13.634;2023-04-08T00:08:25;100852.41;;;11.77;63.47
25156;BME280;21913;52.456;13.634;2023-04-08T00:13:26;100850.69;;;11.76;63.44
25156;BME280;21913;52.456;13.634;2023-04-08T00:18:28;100847.22;;;11.77;63.63
25156;BME280;21913;52.456;13.634;2023-04-08T00:23:29;100843.78;;;11.76;63.42
25156;BME280;21913;52.456;13.634;2023-04-08T00:28:31;100845.50;;;11.76;63.45
25156;BME280;21913;52.456;13.634;2023-04-08T00:33:32;100855.88;;;11.76;63.41
25156;BME280;21913;52.456;13.634;2023-04-08T00:38:34;100853.28;;;11.76;63.55
25156;BME280;21913;52.456;13.634;2023-04-08T00:43:35;100854.13;;;11.76;63.41
25156;BME280;21913;52.456;13.634;2023-04-08T00:48:37;100858.47;;;11.76;63.50
25156;BME280;21913;52.456;13.634;2023-04-08T00:53:38;100858.47;;;11.76;63.41
25156;BME280;21913;52.456;13.634;2023-04-08T00:58:40;100859.31;;;11.76;63.44
25156;BME280;21913;52.456;13.634;2023-04-08T01:03:45;100858.47;;;11.76;63.58
25156;BME280;21913;52.456;13.634;2023-04-08T01:08:51;100866.22;;;11.76;63.50
25156;BME280;21913;52.456;13.634;2023-04-08T01:13:53;100865.38;;;11.75;63.53
25156;BME280;21913;52.456;13.634;2023-04-08T01:18:56;100862.78;;;11.75;63.42
25156;BME280;21913;52.456;13.634;2023-04-08T01:24:12;100863.66;;;11.76;63.42
25156;BME280;21913;52.456;13.634;2023-04-08T01:29:19;100867.97;;;11.77;63.56
25156;BME280;21913;52.456;13.634;2023-04-08T01:34:21;100871.41;;;11.76;63.44
25156;BME280;21913;52.456;13.634;2023-04-08T01:39:24;100878.34;;;11.75;63.50
25156;BME280;21913;52.456;13.634;2023-04-08T01:44:26;100881.78;;;11.76;63.58
25156;BME280;21913;52.456;13.634;2023-04-08T01:49:29;100880.94;;;11.75;63.48
25156;BME280;21913;52.456;13.634;2023-04-08T01:54:31;100890.44;;;11.76;63.48
25156;BME280;21913;52.456;13.634;2023-04-08T01:59:34;100893.88;;;11.75;63.48
25156;BME280;21913;52.456;13.634;2023-04-08T02:04:35;100889.56;;;11.74;63.55
25156;BME280;21913;52.456;13.634;2023-04-08T02:09:37;100880.94;;;11.75;63.51
25156;BME280;21913;52.456;13.634;2023-04-08T02:14:39;100882.66;;;11.75;63.51
25156;BME280;21913;52.456;13.634;2023-04-08T02:19:47;100890.44;;;11.76;63.55
25156;BME280;21913;52.456;13.634;2023-04-08T02:24:51;100889.56;;;11.74;63.55
25156;BME280;21913;52.456;13.634;2023-04-08T02:29:55;100891.28;;;11.75;63.54
25156;BME280;21913;52.456;13.634;2023-04-08T02:34:59;100893.03;;;11.76;63.54
25156;BME280;21913;52.456;13.634;2023-04-08T02:40:02;100895.63;;;11.75;63.56
25156;BME280;21913;52.456;13.634;2023-04-08T02:45:04;100893.03;;;11.75;63.38
25156;BME280;21913;52.456;13.634;2023-04-08T02:50:06;100892.16;;;11.76;63.33
25156;BME280;21913;52.456;13.634;2023-04-08T02:55:07;100899.94;;;11.74;63.45
25156;BME280;21913;52.456;13.634;2023-04-08T03:00:09;100903.41;;;11.76;63.46
25156;BME280;21913;52.456;13.634;2023-04-08T03:05:11;100895.63;;;11.75;63.32
25156;BME280;21913;52.456;13.634;2023-04-08T03:10:12;100906.84;;;11.75;63.45
25156;BME280;21913;52.456;13.634;2023-04-08T03:15:14;100913.75;;;11.75;63.45
25156;BME280;21913;52.456;13.634;2023-04-08T03:20:16;100907.72;;;11.74;63.37
25156;BME280;21913;52.456;13.634;2023-04-08T03:25:17;100903.41;;;11.75;63.49
25156;BME280;21913;52.456;13.634;2023-04-08T03:30:19;100903.41;;;11.75;63.32
25156;BME280;21913;52.456;13.634;2023-04-08T03:35:20;100907.72;;;11.74;63.09
25156;BME280;21913;52.456;13.634;2023-04-08T03:40:22;100910.31;;;11.74;63.56
25156;BME280;21913;52.456;13.634;2023-04-08T03:45:23;100908.56;;;11.75;63.30
25156;BME280;21913;52.456;13.634;2023-04-08T03:50:25;100912.91;;;11.74;63.48
25156;BME280;21913;52.456;13.634;2023-04-08T03:55:26;100922.38;;;11.74;63.47
25156;BME280;21913;52.456;13.634;2023-04-08T04:00:28;100915.50;;;11.74;63.47
25156;BME280;21913;52.456;13.634;2023-04-08T04:05:29;100913.75;;;11.75;63.38
25156;BME280;21913;52.456;13.634;2023-04-08T04:10:31;100918.03;;;11.73;63.39
25156;BME280;21913;52.456;13.634;2023-04-08T04:15:32;100927.56;;;11.74;63.52
25156;BME280;21913;52.456;13.634;2023-04-08T04:20:34;100924.13;;;11.75;63.47
25156;BME280;21913;52.456;13.634;2023-04-08T04:25:35;100930.16;;;11.74;63.43
25156;BME280;21913;52.456;13.634;2023-04-08T04:30:37;100931.00;;;11.73;63.49
25156;BME280;21913;52.456;13.634;2023-04-08T04:35:39;100953.47;;;11.74;63.41
25156;BME280;21913;52.456;13.634;2023-04-08T04:40:40;100954.38;;;11.74;63.32
25156;BME280;21913;52.456;13.634;2023-04-08T04:45:42;100947.47;;;11.75;63.47
25156;BME280;21913;52.456;13.634;2023-04-08T04:50:43;100945.69;;;11.74;63.36
25156;BME280;21913;52.456;13.634;2023-04-08T04:55:45;100940.50;;;11.74;63.48
25156;BME280;21913;52.456;13.634;2023-04-08T05:00:46;100945.69;;;11.74;63.49
25156;BME280;21913;52.456;13.634;2023-04-08T05:05:52;100948.28;;;11.74;63.40
25156;BME280;21913;52.456;13.634;2023-04-08T05:10:53;100948.28;;;11.74;63.51
25156;BME280;21913;52.456;13.634;2023-04-08T05:15:55;100958.66;;;11.74;63.55
25156;BME280;21913;52.456;13.634;2023-04-08T05:20:57;100966.44;;;11.74;63.48
25156;BME280;21913;52.456;13.634;2023-04-08T05:25:58;100962.16;;;11.74;63.41
25156;BME280;21913;52.456;13.634;2023-04-08T05:31:00;100963.84;;;11.74;63.43
25156;BME280;21913;52.456;13.634;2023-04-08T05:36:01;100975.06;;;11.73;63.39
25156;BME280;21913;52.456;13.634;2023-04-08T05:41:03;100979.41;;;11.74;63.55
25156;BME280;21913;52.456;13.634;2023-04-08T05:46:08;100985.44;;;11.73;63.39
25156;BME280;21913;52.456;13.634;2023-04-08T05:51:14;100977.72;;;11.74;63.41
25156;BME280;21913;52.456;13.634;2023-04-08T05:56:15;100988.03;;;11.73;63.48
25156;BME280;21913;52.456;13.634;2023-04-08T06:01:17;100996.69;;;11.73;63.42
25156;BME280;21913;52.456;13.634;2023-04-08T06:06:18;100998.41;;;11.73;63.55
25156;BME280;21913;52.456;13.634;2023-04-08T06:11:20;101003.59;;;11.73;63.44
25156;BME280;21913;52.456;13.634;2023-04-08T06:16:21;101006.19;;;11.73;63.51
25156;BME280;21913;52.456;13.634;2023-04-08T06:21:23;101010.50;;;11.72;63.43
25156;BME280;21913;52.456;13.634;2023-04-08T06:26:24;101032.13;;;11.73;63.36
25156;BME280;21913;52.456;13.634;2023-04-08T06:31:26;101037.31;;;11.73;63.42
25156;BME280;21913;52.456;13.634;2023-04-08T06:36:27;101044.22;;;11.74;63.42
25156;BME280;21913;52.456;13.634;2023-04-08T06:41:29;101034.72;;;11.73;63.48
25156;BME280;21913;52.456;13.634;2023-04-08T06:46:37;101049.41;;;11.74;63.69
25156;BME280;21913;52.456;13.634;2023-04-08T06:51:38;101045.94;;;11.73;63.66
25156;BME280;21913;52.456;13.634;2023-04-08T06:56:39;101054.59;;;11.72;63.45
25156;BME280;21913;52.456;13.634;2023-04-08T07:01:41;101062.38;;;11.74;63.60
25156;BME280;21913;52.456;13.634;2023-04-08T07:06:42;101061.50;;;11.73;63.74
25156;BME280;21913;52.456;13.634;2023-04-08T07:11:44;101064.09;;;11.73;63.73
25156;BME280;21913;52.456;13.634;2023-04-08T07:16:45;101074.47;;;11.72;63.75
25156;BME280;21913;52.456;13.634;2023-04-08T07:21:47;101065.75;;;11.67;63.18
25156;BME280;21913;52.456;13.634;2023-04-08T07:26:48;101076.13;;;11.67;62.99
25156;BME280;21913;52.456;13.634;2023-04-08T07:31:50;101083.91;;;11.67;62.63
25156;BME280;21913;52.456;13.634;2023-04-08T07:36:51;101090.78;;;11.65;62.54
25156;BME280;21913;52.456;13.634;2023-04-08T07:41:53;101089.94;;;11.64;61.93
25156;BME280;21913;52.456;13.634;2023-04-08T07:46:54;101100.31;;;11.66;62.18
25156;BME280;21913;52.456;13.634;2023-04-08T07:51:56;101102.91;;;11.66;62.05
25156;BME280;21913;52.456;13.634;2023-04-08T07:56:57;101114.16;;;11.68;62.05
25156;BME280;21913;52.456;13.634;2023-04-08T08:01:59;101114.16;;;11.68;62.16
25156;BME280;21913;52.456;13.634;2023-04-08T08:07:00;101111.56;;;11.68;62.22
25156;BME280;21913;52.456;13.634;2023-04-08T08:12:01;101111.59;;;11.69;62.32
25156;BME280;21913;52.456;13.634;2023-04-08T08:17:03;101105.50;;;11.69;62.27
25156;BME280;21913;52.456;13.634;2023-04-08T08:22:04;101123.66;;;11.69;62.53
25156;BME280;21913;52.456;13.634;2023-04-08T08:27:09;101128.03;;;11.70;62.53
25156;BME280;21913;52.456;13.634;2023-04-08T08:32:10;101129.75;;;11.71;62.68
25156;BME280;21913;52.456;13.634;2023-04-08T08:37:12;101130.63;;;11.70;62.66
25156;BME280;21913;52.456;13.634;2023-04-08T08:42:24;101134.94;;;11.71;62.82
25156;BME280;21913;52.456;13.634;2023-04-08T08:47:25;101140.13;;;11.71;62.85
25156;BME280;21913;52.456;13.634;2023-04-08T08:52:27;101139.13;;;11.61;62.42
25156;BME280;21913;52.456;13.634;2023-04-08T08:57:28;101151.06;;;11.48;61.49
25156;BME280;21913;52.456;13.634;2023-04-08T09:02:30;101146.75;;;11.49;61.34
25156;BME280;21913;52.456;13.634;2023-04-08T09:07:36;101148.50;;;11.51;61.50
25156;BME280;21913;52.456;13.634;2023-04-08T09:12:52;101153.72;;;11.54;61.59
25156;BME280;21913;52.456;13.634;2023-04-08T09:17:54;101159.78;;;11.56;61.65
25156;BME280;21913;52.456;13.634;2023-04-08T09:22:57;101165.03;;;11.58;61.70
25156;BME280;21913;52.456;13.634;2023-04-08T09:27:59;101167.63;;;11.59;61.86
25156;BME280;21913;52.456;13.634;2023-04-08T09:33:00;101172.81;;;11.59;61.78
25156;BME280;21913;52.456;13.634;2023-04-08T09:38:02;101168.50;;;11.60;61.85
25156;BME280;21913;52.456;13.634;2023-04-08T09:43:04;101170.22;;;11.61;61.86
25156;BME280;21913;52.456;13.634;2023-04-08T09:48:16;101160.72;;;11.62;62.05
25156;BME280;21913;52.456;13.634;2023-04-08T09:53:19;101167.66;;;11.63;62.10
25156;BME280;21913;52.456;13.634;2023-04-08T09:58:27;101168.53;;;11.63;62.10
25156;BME280;21913;52.456;13.634;2023-04-08T10:03:33;101160.75;;;11.63;62.03
25156;BME280;21913;52.456;13.634;2023-04-08T10:08:37;101170.25;;;11.63;62.43
25156;BME280;21913;52.456;13.634;2023-04-08T10:13:38;101164.25;;;11.64;62.27
25156;BME280;21913;52.456;13.634;2023-04-08T10:18:40;101171.16;;;11.65;62.33
25156;BME280;21913;52.456;13.634;2023-04-08T10:23:53;101172.03;;;11.65;62.27
25156;BME280;21913;52.456;13.634;2023-04-08T10:28:54;101163.38;;;11.65;62.47
25156;BME280;21913;52.456;13.634;2023-04-08T10:33:56;101172.03;;;11.65;62.43
25156;BME280;21913;52.456;13.634;2023-04-08T10:39:15;101172.03;;;11.65;62.43
25156;BME280;21913;52.456;13.634;2023-04-08T10:44:22;101178.06;;;11.66;62.69
25156;BME280;21913;52.456;13.634;2023-04-08T10:49:32;101174.63;;;11.67;62.79
25156;BME280;21913;52.456;13.634;2023-04-08T10:54:34;101174.56;;;11.62;62.75
25156;BME280;21913;52.456;13.634;2023-04-08T10:59:36;101174.59;;;11.64;62.58
25156;BME280;21913;52.456;13.634;2023-04-08T11:04:40;101176.34;;;11.65;62.73
25156;BME280;21913;52.456;13.634;2023-04-08T11:09:42;101171.16;;;11.65;62.66
25156;BME280;21913;52.456;13.634;2023-04-08T11:14:44;101174.63;;;11.65;62.77
25156;BME280;21913;52.456;13.634;2023-04-08T11:19:45;101186.72;;;11.65;62.75
25156;BME280;21913;52.456;13.634;2023-04-08T11:24:47;101182.41;;;11.65;62.84
25156;BME280;21913;52.456;13.634;2023-04-08T11:29:49;101184.13;;;11.65;63.09
25156;BME280;21913;52.456;13.634;2023-04-08T11:34:52;101177.22;;;11.65;62.94
25156;BME280;21913;52.456;13.634;2023-04-08T11:39:54;101172.03;;;11.65;62.98
25156;BME280;21913;52.456;13.634;2023-04-08T11:44:55;101172.91;;;11.66;63.10
25156;BME280;21913;52.456;13.634;2023-04-08T11:49:57;101167.72;;;11.66;63.10
25156;BME280;21913;52.456;13.634;2023-04-08T11:54:59;101172.03;;;11.65;63.00
25156;BME280;21913;52.456;13.634;2023-04-08T12:00:00;101170.31;;;11.66;63.01
25156;BME280;21913;52.456;13.634;2023-04-08T12:05:02;101171.16;;;11.66;63.12
25156;BME280;21913;52.456;13.634;2023-04-08T12:10:04;101178.94;;;11.66;63.06
25156;BME280;21913;52.456;13.634;2023-04-08T12:15:07;101168.59;;;11.68;63.22
25156;BME280;21913;52.456;13.634;2023-04-08T12:20:09;101181.56;;;11.68;63.06
25156;BME280;21913;52.456;13.634;2023-04-08T12:25:11;101182.41;;;11.67;63.15
25156;BME280;21913;52.456;13.634;2023-04-08T12:30:13;101175.50;;;11.67;63.28
25156;BME280;21913;52.456;13.634;2023-04-08T12:35:15;101182.41;;;11.67;63.30
25156;BME280;21913;52.456;13.634;2023-04-08T12:40:17;101187.59;;;11.67;63.24
25156;BME280;21913;52.456;13.634;2023-04-08T12:45:18;101174.63;;;11.67;63.25
25156;BME280;21913;52.456;13.634;2023-04-08T12:50:20;101174.63;;;11.67;63.38
25156;BME280;21913;52.456;13.634;2023-04-08T12:55:21;101169.44;;;11.67;63.41
25156;BME280;21913;52.456;13.634;2023-04-08T13:00:23;101166.84;;;11.67;63.42
25156;BME280;21913;52.456;13.634;2023-04-08T13:05:24;101175.50;;;11.67;63.29
25156;BME280;21913;52.456;13.634;2023-04-08T13:10:30;101161.66;;;11.67;63.46
25156;BME280;21913;52.456;13.634;2023-04-08T13:15:31;101171.19;;;11.68;63.65
25156;BME280;21913;52.456;13.634;2023-04-08T13:20:33;101173.78;;;11.68;63.46
25156;BME280;21913;52.456;13.634;2023-04-08T13:25:34;101176.38;;;11.68;63.45
25156;BME280;21913;52.456;13.634;2023-04-08T13:30:36;101175.50;;;11.67;63.54
25156;BME280;21913;52.456;13.634;2023-04-08T13:35:37;101178.06;;;11.66;63.71
25156;BME280;21913;52.456;13.634;2023-04-08T13:40:38;101173.75;;;11.66;63.83
25156;BME280;21913;52.456;13.634;2023-04-08T13:45:40;101170.31;;;11.66;63.83
25156;BME280;21913;52.456;13.634;2023-04-08T13:50:41;101178.94;;;11.66;63.66
25156;BME280;21913;52.456;13.634;2023-04-08T13:55:43;101178.94;;;11.66;63.75
25156;BME280;21913;52.456;13.634;2023-04-08T14:00:45;101177.22;;;11.67;63.67
25156;BME280;21913;52.456;13.634;2023-04-08T14:05:46;101179.81;;;11.67;63.77
25156;BME280;21913;52.456;13.634;2023-04-08T14:10:48;101176.34;;;11.66;63.79
25156;BME280;21913;52.456;13.634;2023-04-08T14:15:49;101173.78;;;11.68;63.77
25156;BME280;21913;52.456;13.634;2023-04-08T14:20:51;101183.28;;;11.67;63.87
25156;BME280;21913;52.456;13.634;2023-04-08T14:25:52;101178.09;;;11.67;63.76
25156;BME280;21913;52.456;13.634;2023-04-08T14:30:54;101172.91;;;11.67;63.90
25156;BME280;21913;52.456;13.634;2023-04-08T14:35:55;101176.50;;;11.77;64.21
25156;BME280;21913;52.456;13.634;2023-04-08T14:40:57;101164.81;;;12.08;63.64
25156;BME280;21913;52.456;13.634;2023-04-08T14:45:58;101166.06;;;12.44;62.83
25156;BME280;21913;52.456;13.634;2023-04-08T14:51:00;101172.41;;;12.72;61.91
25156;BME280;21913;52.456;13.634;2023-04-08T14:56:01;101162.19;;;12.93;61.50
25156;BME280;21913;52.456;13.634;2023-04-08T15:01:03;101166.66;;;13.09;61.03
25156;BME280;21913;52.456;13.634;2023-04-08T15:06:05;101164.19;;;13.22;60.59
25156;BME280;21913;52.456;13.634;2023-04-08T15:11:06;101159.91;;;13.31;60.58
25156;BME280;21913;52.456;13.634;2023-04-08T15:16:07;101165.19;;;13.39;60.24
25156;BME280;21913;52.456;13.634;2023-04-08T15:21:09;101166.94;;;13.43;60.08
25156;BME280;21913;52.456;13.634;2023-04-08T15:26:10;101170.41;;;13.47;59.95
25156;BME280;21913;52.456;13.634;2023-04-08T15:31:12;101165.22;;;13.48;59.98
25156;BME280;21913;52.456;13.634;2023-04-08T15:36:13;101161.78;;;13.49;59.79
25156;BME280;21913;52.456;13.634;2023-04-08T15:41:16;101173.03;;;13.51;59.83
25156;BME280;21913;52.456;13.634;2023-04-08T15:46:21;101179.09;;;13.52;59.80
25156;BME280;21913;52.456;13.634;2023-04-08T15:51:22;101184.31;;;13.49;59.83
25156;BME280;21913;52.456;13.634;2023-04-08T15:56:24;101186.03;;;13.51;59.80
25156;BME280;21913;52.456;13.634;2023-04-08T16:01:25;101186.91;;;13.50;59.81
25156;BME280;21913;52.456;13.634;2023-04-08T16:06:27;101183.41;;;13.48;59.85
25156;BME280;21913;52.456;13.634;2023-04-08T16:11:28;101186.84;;;13.42;59.90
25156;BME280;21913;52.456;13.634;2023-04-08T16:16:30;101185.97;;;13.42;59.89
25156;BME280;21913;52.456;13.634;2023-04-08T16:21:32;101188.56;;;13.37;59.77
25156;BME280;21913;52.456;13.634;2023-04-08T16:26:33;101197.97;;;13.22;59.94
25156;BME280;21913;52.456;13.634;2023-04-08T16:31:35;101194.53;;;13.21;60.03
25156;BME280;21913;52.456;13.634;2023-04-08T16:36:36;101200.59;;;13.25;59.90
25156;BME280;21913;52.456;13.634;2023-04-08T16:41:38;101200.63;;;13.29;59.91
25156;BME280;21913;52.456;13.634;2023-04-08T16:46:39;101193.69;;;13.30;59.86
25156;BME280;21913;52.456;13.634;2023-04-08T16:51:40;101200.63;;;13.31;59.91
25156;BME280;21913;52.456;13.634;2023-04-08T16:56:42;101199.75;;;13.30;59.93
25156;BME280;21913;52.456;13.634;2023-04-08T17:01:43;101206.69;;;13.28;59.94
25156;BME280;21913;52.456;13.634;2023-04-08T17:06:45;101204.97;;;13.27;59.94
25156;BME280;21913;52.456;13.634;2023-04-08T17:11:46;101208.38;;;13.26;60.29
25156;BME280;21913;52.456;13.634;2023-04-08T17:16:48;101217.03;;;13.24;60.24
25156;BME280;21913;52.456;13.634;2023-04-08T17:21:49;101220.50;;;13.24;60.14
25156;BME280;21913;52.456;13.634;2023-04-08T17:26:51;101208.38;;;13.22;60.24
25156;BME280;21913;52.456;13.634;2023-04-08T17:31:52;101216.19;;;13.22;60.27
25156;BME280;21913;52.456;13.634;2023-04-08T17:36:54;101223.03;;;13.20;60.43
25156;BME280;21913;52.456;13.634;2023-04-08T17:41:56;101219.56;;;13.18;60.40
25156;BME280;21913;52.456;13.634;2023-04-08T17:46:57;101214.38;;;13.16;60.36
25156;BME280;21913;52.456;13.634;2023-04-08T17:51:59;101221.25;;;13.15;60.47
25156;BME280;21913;52.456;13.634;2023-04-08T17:57:00;101216.06;;;13.14;60.57
25156;BME280;21913;52.456;13.634;2023-04-08T18:02:02;101216.06;;;13.11;60.39
25156;BME280;21913;52.456;13.634;2023-04-08T18:07:03;101222.13;;;13.11;60.62
25156;BME280;21913;52.456;13.634;2023-04-08T18:12:05;101227.28;;;13.10;60.66
25156;BME280;21913;52.456;13.634;2023-04-08T18:17:06;101240.28;;;13.08;60.71
25156;BME280;21913;52.456;13.634;2023-04-08T18:22:07;101236.78;;;13.06;60.78
25156;BME280;21913;52.456;13.634;2023-04-08T18:27:09;101245.47;;;13.05;60.76
25156;BME280;21913;52.456;13.634;2023-04-08T18:32:10;101248.88;;;13.04;60.88
25156;BME280;21913;52.456;13.634;2023-04-08T18:37:12;101267.06;;;13.04;60.94
25156;BME280;21913;52.456;13.634;2023-04-08T18:42:13;101268.78;;;13.01;60.89
25156;BME280;21913;52.456;13.634;2023-04-08T18:47:15;101274.84;;;13.01;61.10
25156;BME280;21913;52.456;13.634;2023-04-08T18:52:16;101281.75;;;12.99;61.10
25156;BME280;21913;52.456;13.634;2023-04-08T18:57:18;101286.06;;;12.97;61.12
25156;BME280;21913;52.456;13.634;2023-04-08T19:02:19;101285.19;;;12.97;61.18
25156;BME280;21913;52.456;13.634;2023-04-08T19:07:21;101286.06;;;12.96;61.13
25156;BME280;21913;52.456;13.634;2023-04-08T19:12:22;101287.75;;;12.94;61.19
25156;BME280;21913;52.456;13.634;2023-04-08T19:17:23;101287.75;;;12.94;61.33
25156;BME280;21913;52.456;13.634;2023-04-08T19:22:25;101292.94;;;12.92;61.31
25156;BME280;21913;52.456;13.634;2023-04-08T19:27:26;101292.94;;;12.90;61.30
25156;BME280;21913;52.456;13.634;2023-04-08T19:32:28;101291.19;;;12.89;61.44
25156;BME280;21913;52.456;13.634;2023-04-08T19:37:29;101287.72;;;12.89;61.36
25156;BME280;21913;52.456;13.634;2023-04-08T19:42:31;101293.75;;;12.88;61.40
25156;BME280;21913;52.456;13.634;2023-04-08T19:47:32;101288.56;;;12.88;61.46
25156;BME280;21913;52.456;13.634;2023-04-08T19:52:34;101284.22;;;12.87;61.49
25156;BME280;21913;52.456;13.634;2023-04-08T19:57:35;101287.69;;;12.86;61.48
25156;BME280;21913;52.456;13.634;2023-04-08T20:02:37;101295.47;;;12.84;61.65
25156;BME280;21913;52.456;13.634;2023-04-08T20:07:39;101296.34;;;12.85;61.57
25156;BME280;21913;52.456;13.634;2023-04-08T20:12:41;101292.84;;;12.83;61.62
25156;BME280;21913;52.456;13.634;2023-04-08T20:17:42;101300.63;;;12.83;61.52
25156;BME280;21913;52.456;13.634;2023-04-08T20:22:44;101303.22;;;12.81;61.63
25156;BME280;21913;52.456;13.634;2023-04-08T20:27:45;101311.88;;;12.80;61.69
25156;BME280;21913;52.456;13.634;2023-04-08T20:32:47;101311.88;;;12.80;61.59
25156;BME280;21913;52.456;13.634;2023-04-08T20:37:48;101320.50;;;12.79;61.71
25156;BME280;21913;52.456;13.634;2023-04-08T20:42:49;101325.69;;;12.78;61.71
25156;BME280;21913;52.456;13.634;2023-04-08T20:47:51;101327.41;;;12.77;61.84
25156;BME280;21913;52.456;13.634;2023-04-08T20:52:53;101315.28;;;12.76;61.82
25156;BME280;21913;52.456;13.634;2023-04-08T20:57:54;101318.72;;;12.75;61.91
25156;BME280;21913;52.456;13.634;2023-04-08T21:02:55;101323.06;;;12.75;61.89
25156;BME280;21913;52.456;13.634;2023-04-08T21:07:57;101317.00;;;12.74;62.14
25156;BME280;21913;52.456;13.634;2023-04-08T21:12:59;101319.59;;;12.73;61.94
25156;BME280;21913;52.456;13.634;2023-04-08T21:18:00;101319.59;;;12.73;61.89
25156;BME280;21913;52.456;13.634;2023-04-08T21:23:02;101316.88;;;12.65;61.36
25156;BME280;21913;52.456;13.634;2023-04-08T21:28:03;101314.22;;;12.60;60.94
25156;BME280;21913;52.456;13.634;2023-04-08T21:33:04;101317.69;;;12.61;61.05
25156;BME280;21913;52.456;13.634;2023-04-08T21:38:06;101309.06;;;12.62;61.19
25156;BME280;21913;52.456;13.634;2023-04-08T21:43:07;101317.72;;;12.64;61.25
25156;BME280;21913;52.456;13.634;2023-04-08T21:48:09;101309.06;;;12.63;61.26
25156;BME280;21913;52.456;13.634;2023-04-08T21:53:10;101309.06;;;12.63;61.41
25156;BME280;21913;52.456;13.634;2023-04-08T21:58:12;101301.28;;;12.62;61.51
25156;BME280;21913;52.456;13.634;2023-04-08T22:03:14;101301.28;;;12.62;61.50
25156;BME280;21913;52.456;13.634;2023-04-08T22:08:15;101300.41;;;12.61;61.53
25156;BME280;21913;52.456;13.634;2023-04-08T22:13:17;101303.84;;;12.60;61.65
25156;BME280;21913;52.456;13.634;2023-04-08T22:18:18;101303.84;;;12.60;61.70
25156;BME280;21913;52.456;13.634;2023-04-08T22:23:23;101296.91;;;12.59;61.75
25156;BME280;21913;52.456;13.634;2023-04-08T22:28:24;101300.38;;;12.58;61.75
25156;BME280;21913;52.456;13.634;2023-04-08T22:33:26;101296.03;;;12.59;61.76
25156;BME280;21913;52.456;13.634;2023-04-08T22:38:27;101293.44;;;12.57;61.84
25156;BME280;21913;52.456;13.634;2023-04-08T22:43:29;101300.34;;;12.57;61.97
25156;BME280;21913;52.456;13.634;2023-04-08T22:48:30;101299.47;;;12.56;61.99
25156;BME280;21913;52.456;13.634;2023-04-08T22:53:32;101305.53;;;12.57;62.00
25156;BME280;21913;52.456;13.634;2023-04-08T22:58:33;101301.22;;;12.56;61.95
25156;BME280;21913;52.456;13.634;2023-04-08T23:03:35;101292.53;;;12.55;61.99
25156;BME280;21913;52.456;13.634;2023-04-08T23:08:36;101295.97;;;12.53;62.11
25156;BME280;21913;52.456;13.634;2023-04-08T23:13:38;101295.09;;;12.52;62.04
25156;BME280;21913;52.456;13.634;2023-04-08T23:18:39;101297.69;;;12.52;62.17
25156;BME280;21913;52.456;13.634;2023-04-08T23:23:41;101296.81;;;12.52;62.21
25156;BME280;21913;52.456;13.634;2023-04-08T23:28:42;101295.09;;;12.51;62.09
25156;BME280;21913;52.456;13.634;2023-04-08T23:33:44;101292.50;;;12.51;62.25
25156;BME280;21913;52.456;13.634;2023-04-08T23:38:45;101296.78;;;12.50;62.27
25156;BME280;21913;52.456;13.634;2023-04-08T23:43:46;101294.19;;;12.50;62.06
25156;BME280;21913;52.456;13.634;2023-04-08T23:48:48;101295.03;;;12.49;62.28
25156;BME280;21913;52.456;13.634;2023-04-08T23:53:49;101297.66;;;12.49;62.37
25156;BME280;21913;52.456;13.634;2023-04-08T23:58:51;101284.66;;;12.48;62.32
